createdAt,value
2022-12-31T00:00:17.568Z,16.70
2022-12-31T00:05:40.918Z,16.20
2022-12-31T00:10:44.365Z,17.40
2022-12-31T00:15:47.690Z,18.80
2022-12-31T00:20:51.033Z,21.10
2022-12-31T00:25:54.320Z,17.50
2022-12-31T00:30:58.251Z,18.10
2022-12-31T00:36:13.487Z,18.20
2022-12-31T00:41:18.567Z,14.20
2022-12-31T00:46:22.876Z,19.80
2022-12-31T00:51:28.019Z,16.10
2022-12-31T00:56:32.521Z,17.20
2022-12-31T01:01:39.074Z,16.50
2022-12-31T01:06:43.884Z,14.90
2022-12-31T01:11:47.229Z,18.90
2022-12-31T01:16:53.326Z,15.60
2022-12-31T01:21:57.438Z,19.50
2022-12-31T01:27:01.009Z,14.50
2022-12-31T01:32:04.460Z,17.70
2022-12-31T01:37:08.091Z,15.70
2022-12-31T01:42:12.590Z,18.50
2022-12-31T01:47:20.878Z,13.40
2022-12-31T01:52:40.635Z,16.90
2022-12-31T01:57:46.621Z,19.80
2022-12-31T02:02:50.641Z,19.10
2022-12-31T02:07:55.217Z,15.40
2022-12-31T02:12:59.304Z,18.30
2022-12-31T02:18:43.044Z,19.30
2022-12-31T02:24:16.440Z,18.20
2022-12-31T02:29:49.022Z,16.00
2022-12-31T02:34:57.894Z,19.30
2022-12-31T02:40:02.214Z,16.10
2022-12-31T02:45:07.487Z,18.10
2022-12-31T02:50:37.545Z,18.80
2022-12-31T02:55:49.837Z,22.30
2022-12-31T03:01:16.916Z,20.40
2022-12-31T03:06:20.291Z,17.20
2022-12-31T03:11:42.289Z,20.10
2022-12-31T03:16:45.679Z,15.60
2022-12-31T03:22:07.585Z,20.70
2022-12-31T03:27:10.822Z,21.40
2022-12-31T03:32:14.086Z,19.70
2022-12-31T03:37:17.388Z,15.90
2022-12-31T03:42:20.750Z,15.80
2022-12-31T03:47:24.840Z,17.20
2022-12-31T03:52:28.344Z,15.90
2022-12-31T03:57:32.158Z,19.00
2022-12-31T04:02:35.443Z,19.50
2022-12-31T04:07:39.119Z,16.30
2022-12-31T04:12:43.452Z,19.10
2022-12-31T04:17:47.747Z,17.00
2022-12-31T04:22:51.764Z,18.50
2022-12-31T04:27:55.002Z,19.50
2022-12-31T04:32:58.275Z,18.20
2022-12-31T04:38:01.489Z,16.90
2022-12-31T04:43:04.952Z,15.70
2022-12-31T04:48:08.240Z,19.10
2022-12-31T04:53:11.472Z,20.40
2022-12-31T04:58:15.372Z,19.30
2022-12-31T05:03:19.456Z,22.70
2022-12-31T05:08:23.805Z,23.10
2022-12-31T05:13:32.961Z,17.30
2022-12-31T05:18:37.548Z,19.20
2022-12-31T05:23:41.307Z,17.50
2022-12-31T05:28:45.026Z,16.80
2022-12-31T05:33:48.490Z,19.40
2022-12-31T05:38:51.766Z,19.90
2022-12-31T05:43:55.096Z,16.30
2022-12-31T05:48:59.496Z,19.30
2022-12-31T05:54:02.742Z,20.80
2022-12-31T05:59:06.018Z,23.10
2022-12-31T06:04:09.318Z,20.60
2022-12-31T06:09:12.655Z,20.80
2022-12-31T06:14:16.575Z,16.20
2022-12-31T06:19:20.013Z,18.90
2022-12-31T06:24:23.654Z,27.50
2022-12-31T06:29:26.898Z,19.10
2022-12-31T06:34:30.266Z,18.30
2022-12-31T06:39:33.577Z,17.00
2022-12-31T06:44:37.002Z,21.60
2022-12-31T06:49:41.230Z,23.10
2022-12-31T06:54:44.759Z,15.50
2022-12-31T06:59:48.422Z,17.50
2022-12-31T07:05:16.440Z,19.40
2022-12-31T07:10:54.111Z,17.20
2022-12-31T07:16:37.845Z,20.20
2022-12-31T07:21:41.935Z,18.20
2022-12-31T07:27:00.110Z,21.60
2022-12-31T07:32:28.072Z,19.30
2022-12-31T07:37:43.816Z,17.40
2022-12-31T07:43:06.558Z,22.50
2022-12-31T07:48:22.913Z,17.00
2022-12-31T07:53:27.537Z,18.70
2022-12-31T07:58:40.005Z,20.10
2022-12-31T08:03:52.413Z,18.40
2022-12-31T08:08:59.817Z,21.30
2022-12-31T08:14:09.282Z,29.20
2022-12-31T08:19:26.010Z,27.40
2022-12-31T08:24:41.514Z,17.90
2022-12-31T08:29:55.864Z,17.70
2022-12-31T08:35:18.544Z,17.40
2022-12-31T08:40:38.831Z,18.90
2022-12-31T08:45:53.749Z,13.30
2022-12-31T08:50:57.501Z,16.60
2022-12-31T08:56:43.746Z,13.90
2022-12-31T09:02:01.428Z,15.30
2022-12-31T09:07:05.951Z,14.60
2022-12-31T09:12:28.214Z,25.30
2022-12-31T09:17:37.451Z,15.60
2022-12-31T09:22:40.881Z,13.50
2022-12-31T09:28:24.666Z,18.80
2022-12-31T09:34:08.273Z,15.80
2022-12-31T09:39:24.764Z,14.30
2022-12-31T09:45:02.416Z,12.50
2022-12-31T09:50:16.320Z,11.20
2022-12-31T09:55:40.337Z,12.60
2022-12-31T10:00:45.507Z,14.70
2022-12-31T10:05:55.129Z,13.70
2022-12-31T10:11:07.303Z,10.30
2022-12-31T10:16:23.949Z,12.50
2022-12-31T10:21:31.856Z,16.40
2022-12-31T10:27:17.050Z,15.40
2022-12-31T10:32:34.719Z,18.70
2022-12-31T10:37:58.719Z,15.60
2022-12-31T10:43:21.175Z,17.50
2022-12-31T10:48:49.020Z,14.50
2022-12-31T10:54:31.175Z,15.20
2022-12-31T11:00:00.770Z,13.10
2022-12-31T11:05:38.732Z,13.40
2022-12-31T11:11:20.055Z,12.50
2022-12-31T11:16:38.970Z,13.40
2022-12-31T11:22:00.552Z,12.20
2022-12-31T11:27:28.637Z,12.50
2022-12-31T11:33:06.416Z,12.30
2022-12-31T11:38:10.974Z,15.30
2022-12-31T11:43:37.986Z,13.10
2022-12-31T11:48:46.846Z,11.80
2022-12-31T11:54:01.540Z,11.60
2022-12-31T11:59:18.680Z,11.70
2022-12-31T12:04:23.505Z,10.40
2022-12-31T12:09:32.597Z,10.30
2022-12-31T12:14:39.144Z,10.80
2022-12-31T12:19:55.173Z,10.00
2022-12-31T12:25:08.457Z,10.80
2022-12-31T12:30:20.109Z,11.10
2022-12-31T12:35:36.021Z,14.00
2022-12-31T12:40:40.165Z,12.10
2022-12-31T12:45:51.649Z,13.00
2022-12-31T12:50:56.593Z,12.70
2022-12-31T12:56:11.647Z,14.80
2022-12-31T13:01:41.569Z,18.10
2022-12-31T13:06:48.790Z,19.70
2022-12-31T13:12:07.322Z,12.80
2022-12-31T13:17:41.198Z,13.90
2022-12-31T13:22:52.871Z,13.20
2022-12-31T13:28:01.258Z,10.50
2022-12-31T13:33:17.496Z,14.50
2022-12-31T13:38:28.764Z,15.60
2022-12-31T13:43:35.558Z,14.10
2022-12-31T13:49:13.487Z,13.50
2022-12-31T13:54:34.485Z,13.20
2022-12-31T13:59:45.068Z,10.00
2022-12-31T14:04:53.725Z,10.10
2022-12-31T14:09:59.161Z,12.90
2022-12-31T14:15:18.686Z,12.70
2022-12-31T14:20:30.598Z,10.40
2022-12-31T14:25:42.962Z,11.90
2022-12-31T14:30:50.576Z,12.30
2022-12-31T14:36:08.267Z,10.50
2022-12-31T14:41:38.621Z,9.80
2022-12-31T14:47:18.394Z,8.10
2022-12-31T14:52:34.823Z,11.00
2022-12-31T14:58:17.240Z,10.10
2022-12-31T15:03:07.037Z,10.10
2022-12-31T15:08:28.895Z,10.00
2022-12-31T15:14:06.857Z,11.10
2022-12-31T15:19:19.239Z,10.60
2022-12-31T15:24:30.819Z,10.10
2022-12-31T15:29:36.712Z,8.60
2022-12-31T15:34:40.117Z,10.00
2022-12-31T15:39:45.371Z,10.90
2022-12-31T15:44:52.482Z,13.50
2022-12-31T15:49:57.222Z,12.80
2022-12-31T15:55:04.522Z,12.10
2022-12-31T16:00:18.081Z,10.10
2022-12-31T16:05:26.234Z,10.30
2022-12-31T16:10:32.602Z,13.10
2022-12-31T16:15:37.170Z,11.90
2022-12-31T16:20:44.220Z,9.80
2022-12-31T16:25:49.738Z,12.20
2022-12-31T16:31:17.332Z,13.70
2022-12-31T16:36:23.923Z,12.50
2022-12-31T16:41:27.217Z,13.30
2022-12-31T16:46:33.395Z,11.10
2022-12-31T16:51:38.691Z,11.40
2022-12-31T16:56:43.304Z,12.20
2022-12-31T17:01:47.299Z,16.40
2022-12-31T17:06:50.681Z,13.60
2022-12-31T17:12:20.589Z,11.80
2022-12-31T17:17:30.332Z,12.50
2022-12-31T17:22:37.209Z,9.70
2022-12-31T17:27:52.037Z,13.60
2022-12-31T17:33:24.659Z,11.70
2022-12-31T17:38:36.367Z,11.40
2022-12-31T17:43:40.786Z,10.30
2022-12-31T17:48:46.481Z,10.10
2022-12-31T17:53:50.244Z,8.70
2022-12-31T17:58:54.729Z,10.20
2022-12-31T18:03:58.128Z,10.40
2022-12-31T18:09:01.672Z,10.20
2022-12-31T18:14:05.373Z,9.00
2022-12-31T18:19:37.675Z,9.80
2022-12-31T18:24:38.548Z,9.80
2022-12-31T18:29:41.814Z,10.40
2022-12-31T18:34:45.403Z,8.80
2022-12-31T18:39:48.716Z,9.80
2022-12-31T18:44:52.173Z,12.20
2022-12-31T18:49:55.767Z,13.90
2022-12-31T18:54:59.154Z,12.90
2022-12-31T19:00:03.081Z,12.40
2022-12-31T19:05:21.735Z,12.60
2022-12-31T19:10:26.533Z,20.20
2022-12-31T19:15:34.593Z,21.20
2022-12-31T19:20:42.917Z,26.80
2022-12-31T19:25:48.922Z,32.50
2022-12-31T19:30:53.869Z,15.90
2022-12-31T19:35:57.166Z,17.40
2022-12-31T19:41:01.822Z,16.30
2022-12-31T19:46:05.365Z,20.20
2022-12-31T19:51:17.084Z,16.80
2022-12-31T19:56:20.779Z,15.70
2022-12-31T20:01:25.495Z,14.40
2022-12-31T20:06:29.167Z,19.40
2022-12-31T20:11:32.521Z,13.80
2022-12-31T20:16:36.045Z,14.70
2022-12-31T20:21:39.569Z,11.20
2022-12-31T20:26:42.811Z,13.10
2022-12-31T20:31:46.215Z,12.70
2022-12-31T20:36:49.847Z,11.60
2022-12-31T20:41:53.195Z,13.00
2022-12-31T20:46:56.540Z,11.40
2022-12-31T20:51:59.827Z,10.80
2022-12-31T20:57:03.490Z,15.30
2022-12-31T21:02:29.524Z,16.80
2022-12-31T21:07:30.483Z,13.40
2022-12-31T21:12:46.751Z,11.90
2022-12-31T21:17:50.161Z,13.50
2022-12-31T21:22:53.491Z,11.70
2022-12-31T21:27:56.894Z,10.70
2022-12-31T21:33:00.855Z,12.30
2022-12-31T21:38:06.315Z,12.00
2022-12-31T21:43:10.301Z,10.50
2022-12-31T21:48:21.634Z,9.60
2022-12-31T21:53:32.266Z,12.00
2022-12-31T21:58:42.378Z,10.50
2022-12-31T22:03:46.269Z,8.90
2022-12-31T22:08:52.829Z,10.10
2022-12-31T22:13:56.597Z,9.50
2022-12-31T22:18:59.941Z,10.00
2022-12-31T22:24:03.444Z,9.10
2022-12-31T22:29:06.828Z,8.00
2022-12-31T22:34:10.183Z,7.30
2022-12-31T22:39:44.099Z,7.80
2022-12-31T22:44:40.635Z,9.10
2022-12-31T22:49:43.908Z,8.60
2022-12-31T22:54:47.234Z,7.60
2022-12-31T22:59:51.751Z,15.80
2022-12-31T23:05:16.208Z,24.70
2022-12-31T23:10:38.119Z,18.90
2022-12-31T23:16:04.052Z,9.90
2022-12-31T23:21:29.316Z,9.10
2022-12-31T23:26:32.703Z,6.60
2022-12-31T23:31:37.040Z,7.00
2022-12-31T23:36:40.316Z,6.50
2022-12-31T23:41:43.865Z,6.40
2022-12-31T23:46:47.904Z,6.40
2022-12-31T23:51:51.165Z,6.40
2022-12-31T23:56:57.582Z,7.60
